sensor_id;sensor_type;location;lat;lon;timestamp;P1;P4;P2;P0;N10;N4;N25;N1;N05;TS
84988;SPS30;75301;48.238;16.346;2024-03-06T00:04:46;42.4;;44.6;38.7;;;;;;
84988;SPS30;75301;48.238;16.346;2024-03-06T00:09:46;41.5;;43.0;38.4;;;;;;
84988;SPS30;75301;48.238;16.346;2024-03-06T00:14:46;42.4;;43.5;39.5;;;;;;
84988;SPS30;75301;48.238;16.346;2024-03-06T00:19:46;42.8;;43.9;39.9;;;;;;
84988;SPS30;75301;48.238;16.346;2024-03-06T00:24:46;40.8;;42.6;37.5;;;;;;
84988;SPS30;75301;48.238;16.346;2024-03-06T00:29:46;43.0;;44.6;39.7;;;;;;
84988;SPS30;75301;48.238;16.346;2024-03-06T00:34:46;42.8;;44.5;39.4;;;;;;
84988;SPS30;75301;48.238;16.346;2024-03-06T00:39:46;42.8;;44.5;39.5;;;;;;
84988;SPS30;75301;48.238;16.346;2024-03-06T00:44:46;46.0;;48.2;42.2;;;;;;
84988;SPS30;75301;48.238;16.346;2024-03-06T00:49:46;43.9;;45.4;40.7;;;;;;
84988;SPS30;75301;48.238;16.346;2024-03-06T00:54:46;43.2;;44.5;40.2;;;;;;
84988;SPS30;75301;48.238;16.346;2024-03-06T00:59:46;43.6;;45.3;40.2;;;;;;
84988;SPS30;75301;48.238;16.346;2024-03-06T01:04:46;41.7;;42.1;39.5;;;;;;
84988;SPS30;75301;48.238;16.346;2024-03-06T01:09:46;41.5;;43.0;38.4;;;;;;
84988;SPS30;75301;48.238;16.346;2024-03-06T01:14:46;43.1;;44.4;40.1;;;;;;
84988;SPS30;75301;48.238;16.346;2024-03-06T01:19:46;44.1;;46.3;40.3;;;;;;
84988;SPS30;75301;48.238;16.346;2024-03-06T01:24:46;39.6;;41.4;36.3;;;;;;
84988;SPS30;75301;48.238;16.346;2024-03-06T01:29:46;42.2;;43.3;39.4;;;;;;
84988;SPS30;75301;48.238;16.346;2024-03-06T01:34:46;44.0;;45.9;40.4;;;;;;
84988;SPS30;75301;48.238;16.346;2024-03-06T01:39:46;44.6;;46.4;41.1;;;;;;
84988;SPS30;75301;48.238;16.346;2024-03-06T01:44:46;44.5;;45.8;41.4;;;;;;
84988;SPS30;75301;48.238;16.346;2024-03-06T01:49:46;44.5;;46.1;41.1;;;;;;
84988;SPS30;75301;48.238;16.346;2024-03-06T01:54:46;46.5;;47.9;43.2;;;;;;
84988;SPS30;75301;48.238;16.346;2024-03-06T01:59:46;45.1;;47.2;41.5;;;;;;
84988;SPS30;75301;48.238;16.346;2024-03-06T02:04:46;46.3;;48.1;42.7;;;;;;
84988;SPS30;75301;48.238;16.346;2024-03-06T02:09:46;45.6;;47.2;42.2;;;;;;
84988;SPS30;75301;48.238;16.346;2024-03-06T02:14:46;45.8;;47.1;42.6;;;;;;
84988;SPS30;75301;48.238;16.346;2024-03-06T02:19:46;45.4;;47.3;41.9;;;;;;
84988;SPS30;75301;48.238;16.346;2024-03-06T02:24:47;48.7;;50.5;45.0;;;;;;
84988;SPS30;75301;48.238;16.346;2024-03-06T02:29:46;46.7;;48.4;43.1;;;;;;
84988;SPS30;75301;48.238;16.346;2024-03-06T02:34:46;46.0;;47.8;42.4;;;;;;
84988;SPS30;75301;48.238;16.346;2024-03-06T02:39:46;45.8;;48.5;41.5;;;;;;
84988;SPS30;75301;48.238;16.346;2024-03-06T02:44:46;46.6;;49.2;42.4;;;;;;
84988;SPS30;75301;48.238;16.346;2024-03-06T02:49:46;46.6;;49.3;42.3;;;;;;
84988;SPS30;75301;48.238;16.346;2024-03-06T02:54:46;45.9;;48.0;42.1;;;;;;
84988;SPS30;75301;48.238;16.346;2024-03-06T02:59:46;45.0;;46.7;41.6;;;;;;
84988;SPS30;75301;48.238;16.346;2024-03-06T03:04:46;45.3;;47.2;41.6;;;;;;
84988;SPS30;75301;48.238;16.346;2024-03-06T03:09:46;46.2;;49.0;41.9;;;;;;
84988;SPS30;75301;48.238;16.346;2024-03-06T03:14:46;45.9;;48.4;41.8;;;;;;
84988;SPS30;75301;48.238;16.346;2024-03-06T03:19:46;47.9;;50.6;43.6;;;;;;
84988;SPS30;75301;48.238;16.346;2024-03-06T03:24:46;48.4;;50.4;44.6;;;;;;
84988;SPS30;75301;48.238;16.346;2024-03-06T03:29:46;49.6;;52.3;45.1;;;;;;
84988;SPS30;75301;48.238;16.346;2024-03-06T03:34:46;49.4;;51.4;45.5;;;;;;
84988;SPS30;75301;48.238;16.346;2024-03-06T03:39:46;50.3;;52.4;46.3;;;;;;
84988;SPS30;75301;48.238;16.346;2024-03-06T03:44:46;51.0;;53.2;46.8;;;;;;
84988;SPS30;75301;48.238;16.346;2024-03-06T03:49:46;48.0;;49.6;44.5;;;;;;
84988;SPS30;75301;48.238;16.346;2024-03-06T03:54:46;48.4;;50.4;44.5;;;;;;
84988;SPS30;75301;48.238;16.346;2024-03-06T03:59:46;48.0;;50.1;44.1;;;;;;
84988;SPS30;75301;48.238;16.346;2024-03-06T04:04:46;48.6;;51.0;44.4;;;;;;
84988;SPS30;75301;48.238;16.346;2024-03-06T04:09:46;45.8;;47.7;42.2;;;;;;
84988;SPS30;75301;48.238;16.346;2024-03-06T04:14:46;48.8;;51.2;44.6;;;;;;
84988;SPS30;75301;48.238;16.346;2024-03-06T04:19:46;46.7;;49.1;42.6;;;;;;
84988;SPS30;75301;48.238;16.346;2024-03-06T04:24:46;47.1;;49.5;42.9;;;;;;
84988;SPS30;75301;48.238;16.346;2024-03-06T04:29:46;45.3;;47.2;41.7;;;;;;
84988;SPS30;75301;48.238;16.346;2024-03-06T04:34:46;46.6;;48.7;42.9;;;;;;
84988;SPS30;75301;48.238;16.346;2024-03-06T04:39:46;44.8;;46.7;41.2;;;;;;
84988;SPS30;75301;48.238;16.346;2024-03-06T04:44:46;46.0;;48.4;42.0;;;;;;
84988;SPS30;75301;48.238;16.346;2024-03-06T04:49:46;43.9;;45.8;40.3;;;;;;
84988;SPS30;75301;48.238;16.346;2024-03-06T04:54:46;44.4;;46.3;40.8;;;;;;
84988;SPS30;75301;48.238;16.346;2024-03-06T04:59:46;42.6;;44.5;39.0;;;;;;
84988;SPS30;75301;48.238;16.346;2024-03-06T05:04:46;42.6;;44.8;39.0;;;;;;
84988;SPS30;75301;48.238;16.346;2024-03-06T05:09:46;40.2;;42.1;36.8;;;;;;
84988;SPS30;75301;48.238;16.346;2024-03-06T05:14:46;41.8;;44.3;37.8;;;;;;
84988;SPS30;75301;48.238;16.346;2024-03-06T05:19:47;41.1;;43.2;37.6;;;;;;
84988;SPS30;75301;48.238;16.346;2024-03-06T05:24:46;39.4;;41.1;36.3;;;;;;
84988;SPS30;75301;48.238;16.346;2024-03-06T05:29:47;38.0;;39.8;34.8;;;;;;
84988;SPS30;75301;48.238;16.346;2024-03-06T05:34:46;35.3;;36.6;32.7;;;;;;
84988;SPS30;75301;48.238;16.346;2024-03-06T05:39:46;37.6;;39.7;34.1;;;;;;
84988;SPS30;75301;48.238;16.346;2024-03-06T05:44:46;36.1;;37.8;33.1;;;;;;
84988;SPS30;75301;48.238;16.346;2024-03-06T05:49:46;36.1;;37.8;33.1;;;;;;
84988;SPS30;75301;48.238;16.346;2024-03-06T05:54:47;34.6;;36.1;31.8;;;;;;
84988;SPS30;75301;48.238;16.346;2024-03-06T05:59:46;33.5;;35.8;30.2;;;;;;
84988;SPS30;75301;48.238;16.346;2024-03-06T06:04:46;32.3;;33.7;29.6;;;;;;
84988;SPS30;75301;48.238;16.346;2024-03-06T06:09:46;29.9;;31.3;27.3;;;;;;
84988;SPS30;75301;48.238;16.346;2024-03-06T06:14:46;30.4;;31.6;28.0;;;;;;
84988;SPS30;75301;48.238;16.346;2024-03-06T06:19:46;29.8;;29.8;28.4;;;;;;
84988;SPS30;75301;48.238;16.346;2024-03-06T06:24:46;31.1;;32.5;28.6;;;;;;
84988;SPS30;75301;48.238;16.346;2024-03-06T06:29:46;30.7;;32.3;28.0;;;;;;
84988;SPS30;75301;48.238;16.346;2024-03-06T06:34:46;31.9;;33.3;29.3;;;;;;
84988;SPS30;75301;48.238;16.346;2024-03-06T06:39:46;31.4;;32.6;29.0;;;;;;
84988;SPS30;75301;48.238;16.346;2024-03-06T06:44:46;32.6;;34.1;29.9;;;;;;
84988;SPS30;75301;48.238;16.346;2024-03-06T06:49:46;32.0;;33.8;29.1;;;;;;
84988;SPS30;75301;48.238;16.346;2024-03-06T06:54:46;34.2;;35.7;31.5;;;;;;
84988;SPS30;75301;48.238;16.346;2024-03-06T06:59:46;33.5;;35.5;30.4;;;;;;
84988;SPS30;75301;48.238;16.346;2024-03-06T07:04:46;33.8;;35.7;30.8;;;;;;
84988;SPS30;75301;48.238;16.346;2024-03-06T07:09:46;32.3;;33.9;29.5;;;;;;
84988;SPS30;75301;48.238;16.346;2024-03-06T07:14:46;32.5;;34.1;29.7;;;;;;
84988;SPS30;75301;48.238;16.346;2024-03-06T07:19:46;32.6;;34.0;30.0;;;;;;
84988;SPS30;75301;48.238;16.346;2024-03-06T07:24:46;50.0;;52.1;46.1;;;;;;
84988;SPS30;75301;48.238;16.346;2024-03-06T07:29:46;33.2;;34.5;30.6;;;;;;
84988;SPS30;75301;48.238;16.346;2024-03-06T07:34:46;32.2;;33.4;29.7;;;;;;
84988;SPS30;75301;48.238;16.346;2024-03-06T07:39:46;34.1;;35.4;31.4;;;;;;
84988;SPS30;75301;48.238;16.346;2024-03-06T07:44:46;31.8;;33.3;29.1;;;;;;
84988;SPS30;75301;48.238;16.346;2024-03-06T07:49:46;32.4;;33.9;29.7;;;;;;
84988;SPS30;75301;48.238;16.346;2024-03-06T07:54:46;31.9;;33.4;29.2;;;;;;
84988;SPS30;75301;48.238;16.346;2024-03-06T07:59:47;32.1;;33.6;29.4;;;;;;
84988;SPS30;75301;48.238;16.346;2024-03-06T08:04:46;31.6;;33.3;28.9;;;;;;
84988;SPS30;75301;48.238;16.346;2024-03-06T08:09:46;30.0;;31.1;27.8;;;;;;
84988;SPS30;75301;48.238;16.346;2024-03-06T08:14:46;30.8;;32.3;28.2;;;;;;
84988;SPS30;75301;48.238;16.346;2024-03-06T08:19:46;34.2;;36.1;31.1;;;;;;
84988;SPS30;75301;48.238;16.346;2024-03-06T08:24:46;30.0;;30.3;28.4;;;;;;
84988;SPS30;75301;48.238;16.346;2024-03-06T08:29:46;31.9;;33.6;29.0;;;;;;
84988;SPS30;75301;48.238;16.346;2024-03-06T08:34:46;31.9;;33.6;29.2;;;;;;
84988;SPS30;75301;48.238;16.346;2024-03-06T08:39:46;33.0;;34.5;30.3;;;;;;
84988;SPS30;75301;48.238;16.346;2024-03-06T08:44:47;34.0;;35.7;31.0;;;;;;
84988;SPS30;75301;48.238;16.346;2024-03-06T08:49:46;35.3;;37.3;32.1;;;;;;
84988;SPS30;75301;48.238;16.346;2024-03-06T08:54:46;36.9;;38.8;33.7;;;;;;
84988;SPS30;75301;48.238;16.346;2024-03-06T08:59:47;35.0;;36.7;32.0;;;;;;
84988;SPS30;75301;48.238;16.346;2024-03-06T09:04:47;34.8;;36.4;32.0;;;;;;
84988;SPS30;75301;48.238;16.346;2024-03-06T09:09:46;32.8;;34.4;30.0;;;;;;
84988;SPS30;75301;48.238;16.346;2024-03-06T09:14:46;33.4;;34.8;30.8;;;;;;
84988;SPS30;75301;48.238;16.346;2024-03-06T09:19:46;34.3;;35.7;31.5;;;;;;
84988;SPS30;75301;48.238;16.346;2024-03-06T09:24:46;33.1;;35.2;30.0;;;;;;
84988;SPS30;75301;48.238;16.346;2024-03-06T09:29:46;32.9;;34.9;29.8;;;;;;
84988;SPS30;75301;48.238;16.346;2024-03-06T09:34:46;33.8;;35.9;30.6;;;;;;
84988;SPS30;75301;48.238;16.346;2024-03-06T09:39:46;34.9;;37.0;31.7;;;;;;
84988;SPS30;75301;48.238;16.346;2024-03-06T09:44:46;32.1;;33.1;29.8;;;;;;
84988;SPS30;75301;48.238;16.346;2024-03-06T09:49:46;30.0;;31.4;27.6;;;;;;
84988;SPS30;75301;48.238;16.346;2024-03-06T09:54:47;29.4;;31.0;26.8;;;;;;
84988;SPS30;75301;48.238;16.346;2024-03-06T09:59:46;43.2;;44.4;40.3;;;;;;
84988;SPS30;75301;48.238;16.346;2024-03-06T10:04:47;28.5;;29.8;26.2;;;;;;
84988;SPS30;75301;48.238;16.346;2024-03-06T10:09:47;27.7;;29.2;25.2;;;;;;
84988;SPS30;75301;48.238;16.346;2024-03-06T10:14:50;28.4;;29.8;26.0;;;;;;
84988;SPS30;75301;48.238;16.346;2024-03-06T10:19:46;27.7;;29.2;25.2;;;;;;
84988;SPS30;75301;48.238;16.346;2024-03-06T10:24:46;26.8;;27.9;24.6;;;;;;
84988;SPS30;75301;48.238;16.346;2024-03-06T10:29:46;30.9;;32.1;28.5;;;;;;
84988;SPS30;75301;48.238;16.346;2024-03-06T10:34:46;24.7;;25.0;23.2;;;;;;
84988;SPS30;75301;48.238;16.346;2024-03-06T10:39:46;23.9;;25.3;21.6;;;;;;
84988;SPS30;75301;48.238;16.346;2024-03-06T10:44:48;23.9;;25.3;21.7;;;;;;
84988;SPS30;75301;48.238;16.346;2024-03-06T10:49:46;25.5;;26.9;23.1;;;;;;
84988;SPS30;75301;48.238;16.346;2024-03-06T10:54:47;23.0;;23.5;21.6;;;;;;
84988;SPS30;75301;48.238;16.346;2024-03-06T10:59:46;26.2;;27.7;23.8;;;;;;
84988;SPS30;75301;48.238;16.346;2024-03-06T11:04:46;25.1;;26.3;23.0;;;;;;
84988;SPS30;75301;48.238;16.346;2024-03-06T11:09:46;26.2;;27.6;23.8;;;;;;
84988;SPS30;75301;48.238;16.346;2024-03-06T11:14:48;23.7;;24.6;21.9;;;;;;
84988;SPS30;75301;48.238;16.346;2024-03-06T11:20:28;26.0;;27.0;24.0;;;;;;
84988;SPS30;75301;48.238;16.346;2024-03-06T11:24:46;25.1;;26.3;23.0;;;;;;
84988;SPS30;75301;48.238;16.346;2024-03-06T11:34:46;25.4;;26.9;23.0;;;;;;
84988;SPS30;75301;48.238;16.346;2024-03-06T11:39:46;25.6;;26.3;23.8;;;;;;
84988;SPS30;75301;48.238;16.346;2024-03-06T11:49:47;28.3;;29.6;25.9;;;;;;
84988;SPS30;75301;48.238;16.346;2024-03-06T11:54:47;29.2;;31.1;26.3;;;;;;
84988;SPS30;75301;48.238;16.346;2024-03-06T11:59:47;28.7;;29.2;26.9;;;;;;
84988;SPS30;75301;48.238;16.346;2024-03-06T12:04:47;29.8;;31.3;27.2;;;;;;
84988;SPS30;75301;48.238;16.346;2024-03-06T12:09:46;27.4;;28.4;25.3;;;;;;
84988;SPS30;75301;48.238;16.346;2024-03-06T12:14:56;29.5;;31.4;26.7;;;;;;
84988;SPS30;75301;48.238;16.346;2024-03-06T12:19:47;28.3;;29.6;25.9;;;;;;
84988;SPS30;75301;48.238;16.346;2024-03-06T12:24:58;27.2;;29.1;24.4;;;;;;
84988;SPS30;75301;48.238;16.346;2024-03-06T12:29:47;28.7;;30.2;26.2;;;;;;
84988;SPS30;75301;48.238;16.346;2024-03-06T12:34:56;27.0;;27.0;25.7;;;;;;
84988;SPS30;75301;48.238;16.346;2024-03-06T12:39:47;29.5;;29.9;27.8;;;;;;
84988;SPS30;75301;48.238;16.346;2024-03-06T12:44:47;28.4;;28.9;26.8;;;;;;
84988;SPS30;75301;48.238;16.346;2024-03-06T12:49:47;27.7;;28.2;26.0;;;;;;
84988;SPS30;75301;48.238;16.346;2024-03-06T12:54:47;30.3;;31.5;27.9;;;;;;
84988;SPS30;75301;48.238;16.346;2024-03-06T12:59:47;28.1;;29.4;25.7;;;;;;
84988;SPS30;75301;48.238;16.346;2024-03-06T13:04:47;27.4;;27.8;25.8;;;;;;
84988;SPS30;75301;48.238;16.346;2024-03-06T13:09:47;28.6;;30.0;26.1;;;;;;
84988;SPS30;75301;48.238;16.346;2024-03-06T13:14:46;27.4;;28.8;25.0;;;;;;
84988;SPS30;75301;48.238;16.346;2024-03-06T13:19:47;26.8;;28.1;24.5;;;;;;
84988;SPS30;75301;48.238;16.346;2024-03-06T13:24:47;26.2;;27.5;24.0;;;;;;
84988;SPS30;75301;48.238;16.346;2024-03-06T13:29:47;27.0;;28.3;24.7;;;;;;
84988;SPS30;75301;48.238;16.346;2024-03-06T13:34:47;27.7;;28.9;25.4;;;;;;
84988;SPS30;75301;48.238;16.346;2024-03-06T13:39:47;27.8;;29.0;25.6;;;;;;
84988;SPS30;75301;48.238;16.346;2024-03-06T13:44:47;27.2;;28.9;24.6;;;;;;
84988;SPS30;75301;48.238;16.346;2024-03-06T13:49:47;27.5;;27.8;26.0;;;;;;
84988;SPS30;75301;48.238;16.346;2024-03-06T13:54:47;26.3;;28.0;23.7;;;;;;
84988;SPS30;75301;48.238;16.346;2024-03-06T13:59:47;27.1;;28.3;24.9;;;;;;
84988;SPS30;75301;48.238;16.346;2024-03-06T14:04:47;26.9;;28.4;24.5;;;;;;
84988;SPS30;75301;48.238;16.346;2024-03-06T14:09:47;25.8;;27.0;23.8;;;;;;
84988;SPS30;75301;48.238;16.346;2024-03-06T14:14:47;25.3;;26.8;23.0;;;;;;
84988;SPS30;75301;48.238;16.346;2024-03-06T14:19:47;23.8;;25.3;21.4;;;;;;
84988;SPS30;75301;48.238;16.346;2024-03-06T14:24:47;24.3;;25.5;22.2;;;;;;
84988;SPS30;75301;48.238;16.346;2024-03-06T14:29:47;23.6;;24.2;22.0;;;;;;
84988;SPS30;75301;48.238;16.346;2024-03-06T14:34:47;24.1;;24.4;22.8;;;;;;
84988;SPS30;75301;48.238;16.346;2024-03-06T14:39:47;23.7;;24.7;21.7;;;;;;
84988;SPS30;75301;48.238;16.346;2024-03-06T14:44:47;22.1;;22.8;20.5;;;;;;
84988;SPS30;75301;48.238;16.346;2024-03-06T14:49:47;22.8;;23.9;20.9;;;;;;
84988;SPS30;75301;48.238;16.346;2024-03-06T14:54:47;24.3;;25.8;22.0;;;;;;
84988;SPS30;75301;48.238;16.346;2024-03-06T14:59:47;22.0;;23.0;20.1;;;;;;
84988;SPS30;75301;48.238;16.346;2024-03-06T15:04:47;23.5;;25.1;21.2;;;;;;
84988;SPS30;75301;48.238;16.346;2024-03-06T15:09:47;22.9;;24.3;20.8;;;;;;
84988;SPS30;75301;48.238;16.346;2024-03-06T15:14:47;22.4;;23.3;20.6;;;;;;
84988;SPS30;75301;48.238;16.346;2024-03-06T15:19:47;22.1;;23.2;20.3;;;;;;
84988;SPS30;75301;48.238;16.346;2024-03-06T15:24:47;22.8;;23.9;20.8;;;;;;
84988;SPS30;75301;48.238;16.346;2024-03-06T15:29:47;23.6;;24.6;21.6;;;;;;
84988;SPS30;75301;48.238;16.346;2024-03-06T15:34:47;23.4;;24.7;21.3;;;;;;
84988;SPS30;75301;48.238;16.346;2024-03-06T15:39:47;21.9;;22.4;20.5;;;;;;
84988;SPS30;75301;48.238;16.346;2024-03-06T15:44:47;22.0;;23.3;19.9;;;;;;
84988;SPS30;75301;48.238;16.346;2024-03-06T15:49:47;22.5;;23.7;20.5;;;;;;
84988;SPS30;75301;48.238;16.346;2024-03-06T15:54:47;23.4;;24.6;21.3;;;;;;
84988;SPS30;75301;48.238;16.346;2024-03-06T15:59:47;24.3;;25.3;22.4;;;;;;
84988;SPS30;75301;48.238;16.346;2024-03-06T16:04:47;25.9;;27.4;23.5;;;;;;
84988;SPS30;75301;48.238;16.346;2024-03-06T16:09:47;26.2;;27.4;24.0;;;;;;
84988;SPS30;75301;48.238;16.346;2024-03-06T16:14:47;24.2;;25.4;22.1;;;;;;
84988;SPS30;75301;48.238;16.346;2024-03-06T16:19:47;26.2;;27.6;23.9;;;;;;
84988;SPS30;75301;48.238;16.346;2024-03-06T16:24:47;28.1;;29.4;25.7;;;;;;
84988;SPS30;75301;48.238;16.346;2024-03-06T16:29:47;30.5;;32.2;27.7;;;;;;
84988;SPS30;75301;48.238;16.346;2024-03-06T16:34:47;24.8;;26.2;22.6;;;;;;
84988;SPS30;75301;48.238;16.346;2024-03-06T16:39:47;24.8;;25.9;22.8;;;;;;
84988;SPS30;75301;48.238;16.346;2024-03-06T16:44:47;25.3;;26.5;23.2;;;;;;
84988;SPS30;75301;48.238;16.346;2024-03-06T16:49:47;25.9;;27.1;23.8;;;;;;
84988;SPS30;75301;48.238;16.346;2024-03-06T16:54:47;25.7;;26.9;23.6;;;;;;
84988;SPS30;75301;48.238;16.346;2024-03-06T16:59:47;25.7;;27.1;23.4;;;;;;
84988;SPS30;75301;48.238;16.346;2024-03-06T17:04:47;28.6;;30.1;26.1;;;;;;
84988;SPS30;75301;48.238;16.346;2024-03-06T17:09:47;26.7;;28.4;24.2;;;;;;
84988;SPS30;75301;48.238;16.346;2024-03-06T17:14:47;26.8;;28.1;24.5;;;;;;
84988;SPS30;75301;48.238;16.346;2024-03-06T17:19:47;28.1;;29.3;25.9;;;;;;
84988;SPS30;75301;48.238;16.346;2024-03-06T17:24:47;27.5;;28.6;25.3;;;;;;
84988;SPS30;75301;48.238;16.346;2024-03-06T17:29:47;27.0;;27.6;25.2;;;;;;
84988;SPS30;75301;48.238;16.346;2024-03-06T17:34:47;27.3;;28.5;25.2;;;;;;
84988;SPS30;75301;48.238;16.346;2024-03-06T17:39:47;25.9;;27.1;23.8;;;;;;
84988;SPS30;75301;48.238;16.346;2024-03-06T17:44:47;25.5;;26.7;23.3;;;;;;
84988;SPS30;75301;48.238;16.346;2024-03-06T17:49:47;25.5;;26.1;23.8;;;;;;
84988;SPS30;75301;48.238;16.346;2024-03-06T17:54:47;26.6;;28.0;24.3;;;;;;
84988;SPS30;75301;48.238;16.346;2024-03-06T17:59:47;25.2;;26.7;22.9;;;;;;
84988;SPS30;75301;48.238;16.346;2024-03-06T18:04:47;26.8;;27.9;24.6;;;;;;
84988;SPS30;75301;48.238;16.346;2024-03-06T18:09:47;26.1;;27.2;24.0;;;;;;
84988;SPS30;75301;48.238;16.346;2024-03-06T18:14:47;29.0;;30.4;26.6;;;;;;
84988;SPS30;75301;48.238;16.346;2024-03-06T18:19:47;25.8;;26.9;23.8;;;;;;
84988;SPS30;75301;48.238;16.346;2024-03-06T18:24:47;26.3;;27.6;24.1;;;;;;
84988;SPS30;75301;48.238;16.346;2024-03-06T18:29:47;27.0;;28.0;25.0;;;;;;
84988;SPS30;75301;48.238;16.346;2024-03-06T18:34:47;27.0;;28.0;24.9;;;;;;
84988;SPS30;75301;48.238;16.346;2024-03-06T18:39:47;26.7;;28.0;24.5;;;;;;
84988;SPS30;75301;48.238;16.346;2024-03-06T18:44:47;27.3;;28.8;24.9;;;;;;
84988;SPS30;75301;48.238;16.346;2024-03-06T18:49:47;24.6;;24.6;23.5;;;;;;
84988;SPS30;75301;48.238;16.346;2024-03-06T18:54:47;25.7;;25.8;24.4;;;;;;
84988;SPS30;75301;48.238;16.346;2024-03-06T18:59:47;24.6;;24.6;23.4;;;;;;
84988;SPS30;75301;48.238;16.346;2024-03-06T19:04:47;23.7;;24.1;22.3;;;;;;
84988;SPS30;75301;48.238;16.346;2024-03-06T19:09:47;25.9;;26.8;24.0;;;;;;
84988;SPS30;75301;48.238;16.346;2024-03-06T19:14:47;25.9;;27.3;23.7;;;;;;
84988;SPS30;75301;48.238;16.346;2024-03-06T19:19:47;25.8;;27.1;23.7;;;;;;
84988;SPS30;75301;48.238;16.346;2024-03-06T19:24:47;24.8;;25.0;23.5;;;;;;
84988;SPS30;75301;48.238;16.346;2024-03-06T19:29:47;24.7;;26.0;22.5;;;;;;
84988;SPS30;75301;48.238;16.346;2024-03-06T19:34:47;22.3;;22.3;21.3;;;;;;
84988;SPS30;75301;48.238;16.346;2024-03-06T19:39:47;24.3;;25.8;22.0;;;;;;
84988;SPS30;75301;48.238;16.346;2024-03-06T19:44:47;24.4;;25.1;22.6;;;;;;
84988;SPS30;75301;48.238;16.346;2024-03-06T19:49:47;24.7;;25.3;23.1;;;;;;
84988;SPS30;75301;48.238;16.346;2024-03-06T19:54:47;25.2;;26.8;22.8;;;;;;
84988;SPS30;75301;48.238;16.346;2024-03-06T19:59:47;24.4;;24.4;23.2;;;;;;
84988;SPS30;75301;48.238;16.346;2024-03-06T20:04:47;25.8;;26.7;23.8;;;;;;
84988;SPS30;75301;48.238;16.346;2024-03-06T20:09:47;25.1;;25.9;23.2;;;;;;
84988;SPS30;75301;48.238;16.346;2024-03-06T20:14:47;25.7;;25.7;24.4;;;;;;
84988;SPS30;75301;48.238;16.346;2024-03-06T20:19:47;25.7;;25.7;24.5;;;;;;
84988;SPS30;75301;48.238;16.346;2024-03-06T20:24:47;26.9;;27.9;24.9;;;;;;
84988;SPS30;75301;48.238;16.346;2024-03-06T20:29:47;26.2;;27.0;24.4;;;;;;
84988;SPS30;75301;48.238;16.346;2024-03-06T20:34:47;27.9;;28.6;26.1;;;;;;
84988;SPS30;75301;48.238;16.346;2024-03-06T20:39:47;29.6;;30.1;27.8;;;;;;
84988;SPS30;75301;48.238;16.346;2024-03-06T20:44:47;31.2;;31.3;29.7;;;;;;
84988;SPS30;75301;48.238;16.346;2024-03-06T20:49:47;32.6;;33.1;30.7;;;;;;
84988;SPS30;75301;48.238;16.346;2024-03-06T20:54:47;32.3;;33.3;30.1;;;;;;
84988;SPS30;75301;48.238;16.346;2024-03-06T20:59:47;33.8;;35.1;31.2;;;;;;
84988;SPS30;75301;48.238;16.346;2024-03-06T21:04:47;31.7;;32.0;30.0;;;;;;
84988;SPS30;75301;48.238;16.346;2024-03-06T21:09:47;32.2;;33.5;29.6;;;;;;
84988;SPS30;75301;48.238;16.346;2024-03-06T21:14:47;32.5;;34.2;29.7;;;;;;
84988;SPS30;75301;48.238;16.346;2024-03-06T21:19:47;32.7;;32.7;31.1;;;;;;
84988;SPS30;75301;48.238;16.346;2024-03-06T21:24:47;34.5;;36.3;31.5;;;;;;
84988;SPS30;75301;48.238;16.346;2024-03-06T21:29:47;32.8;;34.9;29.5;;;;;;
84988;SPS30;75301;48.238;16.346;2024-03-06T21:34:48;33.5;;33.5;31.9;;;;;;
84988;SPS30;75301;48.238;16.346;2024-03-06T21:39:47;33.7;;35.3;30.8;;;;;;
84988;SPS30;75301;48.238;16.346;2024-03-06T21:44:47;34.4;;35.0;32.4;;;;;;
84988;SPS30;75301;48.238;16.346;2024-03-06T21:49:47;32.6;;33.8;30.1;;;;;;
84988;SPS30;75301;48.238;16.346;2024-03-06T21:54:47;32.2;;34.3;29.1;;;;;;
84988;SPS30;75301;48.238;16.346;2024-03-06T21:59:47;30.3;;30.8;28.6;;;;;;
84988;SPS30;75301;48.238;16.346;2024-03-06T22:04:47;29.0;;29.0;27.7;;;;;;
84988;SPS30;75301;48.238;16.346;2024-03-06T22:09:47;30.3;;31.2;28.2;;;;;;
84988;SPS30;75301;48.238;16.346;2024-03-06T22:14:47;30.5;;32.2;27.8;;;;;;
84988;SPS30;75301;48.238;16.346;2024-03-06T22:19:47;30.8;;31.4;29.0;;;;;;
84988;SPS30;75301;48.238;16.346;2024-03-06T22:24:47;31.9;;31.9;30.4;;;;;;
84988;SPS30;75301;48.238;16.346;2024-03-06T22:29:47;31.0;;31.0;29.6;;;;;;
84988;SPS30;75301;48.238;16.346;2024-03-06T22:34:47;30.4;;31.0;28.6;;;;;;
84988;SPS30;75301;48.238;16.346;2024-03-06T22:39:47;33.3;;34.8;30.6;;;;;;
84988;SPS30;75301;48.238;16.346;2024-03-06T22:44:47;31.2;;31.7;29.3;;;;;;
84988;SPS30;75301;48.238;16.346;2024-03-06T22:49:47;31.7;;32.3;29.8;;;;;;
84988;SPS30;75301;48.238;16.346;2024-03-06T22:54:47;32.8;;33.0;31.0;;;;;;
84988;SPS30;75301;48.238;16.346;2024-03-06T22:59:47;32.3;;32.3;30.8;;;;;;
84988;SPS30;75301;48.238;16.346;2024-03-06T23:04:47;32.5;;32.5;31.0;;;;;;
84988;SPS30;75301;48.238;16.346;2024-03-06T23:09:47;31.9;;33.5;29.2;;;;;;
84988;SPS30;75301;48.238;16.346;2024-03-06T23:14:47;29.3;;30.3;27.1;;;;;;
84988;SPS30;75301;48.238;16.346;2024-03-06T23:19:47;27.4;;28.1;25.6;;;;;;
84988;SPS30;75301;48.238;16.346;2024-03-06T23:24:47;25.4;;26.1;23.6;;;;;;
84988;SPS30;75301;48.238;16.346;2024-03-06T23:29:47;23.0;;23.0;21.9;;;;;;
84988;SPS30;75301;48.238;16.346;2024-03-06T23:34:47;22.4;;22.4;21.3;;;;;;
84988;SPS30;75301;48.238;16.346;2024-03-06T23:39:47;21.0;;21.0;20.0;;;;;;
84988;SPS30;75301;48.238;16.346;2024-03-06T23:44:47;21.2;;21.2;20.2;;;;;;
84988;SPS30;75301;48.238;16.346;2024-03-06T23:49:47;20.4;;20.4;19.4;;;;;;
84988;SPS30;75301;48.238;16.346;2024-03-06T23:54:47;22.0;;22.0;21.0;;;;;;
84988;SPS30;75301;48.238;16.346;2024-03-06T23:59:47;21.7;;22.5;20.1;;;;;;
